Rafic Hariri International Airport (BEY/OLBA)




Flight Aircraft Arriving
CPX938 B738
EBLG - Liège Airport
Belgium Liege, Belgium
Flight Aircraft Departing
CPX939 B738
EBLG - Liège Airport
Belgium Liege, Belgium
Airport Information
Location: Beirut, LB
Coordinates: 33.8209 / 35.4884
Elevation:
Time Offset:
Local Time:
UTC Time:
Jet A Price: $0.65/lbs

Current Weather
METAR: OLBA 261400Z 04004KT 8000 DZ BKN026 19/13 Q1013 NOSIG
TAF: TAF OLBA 261000Z 2612/2718 24012KT 8000 -RA BKN025 TEMPO 2612/2615 5000 TSRA FEW020CB BKN023 BECMG 2615/2618 34010KT DZ SCT026 SCT070 BECMG 2700/2703 02008KT BECMG 2706/2709 16006KT BECMG 2712/2715 24008KT SCT026

Recent Arrivals
Date Flight Type Depart
10/30/2019 CPX939 B738 Liège Airport (EBLG)
10/02/2019 CPX939 B738 Liège Airport (EBLG)
Recent Departures
Date Flight Type Arrive
10/30/2019 CPX938 B738 Liège Airport (EBLG)
10/03/2019 CPX938 B738 Liège Airport (EBLG)